AirNav   Everest Fuels
 
 1646 users online  

04CL Desert Wings Sky Ranch Airport
Julian, California, USA

GOING TO JULIAN?


FAA INFORMATION EFFECTIVE 04 NOVEMBER 2021

Location

FAA Identifier: 04CL
Lat/Long: 33-04-54.1590N 116-26-29.0560W
33-04.902650N 116-26.484267W
33.0817108,-116.4414044
(estimated)
Elevation: 2310 ft. / 704 m (estimated)
Variation: 13E (1985)
From city: 9 miles E of JULIAN, CA
Time zone: UTC -7 (UTC -8 during Standard Time)
Zip code: 92036

Airport Operations

Airport use: Private use. Permission required prior to landing
Activation date: 03/1963
Control tower: no
ARTCC: LOS ANGELES CENTER
FSS: SAN DIEGO FLIGHT SERVICE STATION
Attendance: CONTINUOUS
Wind indicator: yes, WIND SOCK INSTALLED ON NORTH SIDE OF RWY.
Segmented circle: yes

Airport Communications

UNICOM: 122.8
WX AWOS-3P at L08 (12 nm NE): 126.575 (760-767-3308)

Nearby radio navigation aids

VOR radial/distance  VOR name  Freq  Var
JLIr101/8.1JULIAN VORTAC114.0015E
TRMr190/35.7THERMAL VORTAC116.2013E
PGYr030/39.2POGGI VORTAC116.4514E

Airport Services

Airframe service: NONE
Powerplant service: NONE

Runway Information

Runway 8/26

Dimensions: 1900 x 100 ft. / 579 x 30 m
Surface: gravel/dirt
RUNWAY 8  RUNWAY 26
Traffic pattern: leftleft
Displaced threshold: no600 ft.
Obstructions: none50 ft. pline, 50 ft. from runway
UNMKD/UNLGTD APRXLY 50' HIGH PLINE RUNS N & S 50' EAST OF E END OF RY.

Airport Ownership and Management from official FAA records

Ownership: Privately-owned
Owner: SUSAN BOYER
424 KELLY AVE
HALF MOON BAY, CA 94019
Phone (650) 554-0922
Manager: SUSAN BOYER
424 KELLY AVE
HALF MOON BAY, CA 94019
Phone (650) 554-0922

Additional Remarks

A30-E EAST END RWY CLOSED BECAUSE OF PLINE.
FOR CD CTC LOS ANGELES ARTCC AT 661-575-2079.

Instrument Procedures

There are no published instrument procedures at 04CL.

Some nearby airports with instrument procedures:

L08 - Borrego Valley Airport (12 nm NE)
KRNM - Ramona Airport (24 nm W)
KSEE - Gillespie Field Airport (31 nm SW)
KTRM - Jacqueline Cochran Regional Airport (36 nm NE)
KNKX - Miramar MCAS (Joe Foss Field) Airport (38 nm W)
 
Loc | Ops | Rwys | IFR | FBO | Links
Com | Nav | Svcs | Stats | Notes
Area around 04CL (Desert Wings Sky Ranch Airport)
 
Road maps at: MapQuest Bing Google
 
Aerial photo
No photo
 
Sectional chart

 
Airport distance calculator
Flying to Desert Wings Sky Ranch Airport? Find the distance to fly.

From to 04CL

Sunrise and sunset
Times for 30-Nov-2021
 Local
(UTC-8)
 Zulu
(UTC)
Morning civil twilight06:0414:04
Sunrise06:3114:31
Sunset16:3800:38
Evening civil twilight17:0501:05

Current date and time
Zulu (UTC)  30-Nov-2021 18:07:55
Local (UTC-8)  30-Nov-2021 10:07:55
 
METAR
KL08 
12nm NE 
301755Z AUTO 00000KT 10SM CLR 23/M08 A3006 RMK AO2
KRNM 
24nm W 
301753Z 00000KT 10SM CLR 25/M03 A3007 RMK AO2 SLP172 T02501028 10250 20022 50003
TAF
KTRM 
36nm NE 
300538Z 3006/0106 36005KT P6SM SKC FM301900 14007KT P6SM SKC FM010300 32006KT P6SM SKC
KNKX 
37nm W 
3015/0115 VRB05KT 9000 BR BKN005 QNH3004INS BECMG 3015/3017 VRB06KT 9999 NSW SCT005 QNH3003INS FM301930 30008KT 9999 SKC QNH2998INS FM010030 VRB05KT 9999 SKC QNH2998INS BECMG 0102/0104 VRB05KT 3200 OVC003 QNH2999INS TEMPO 0104/0110 0800 FG VV002 T25/3021Z T08/0114Z AMD 1540
KNJK 
42nm E 
3015/0115 VRB04KT 9999 SKC QNH2995INS FM010100 27006KT 9999 FEW250 QNH2996INS T09/3015Z T28/3023Z FS30130
MMTJ 
42nm SW 
300937Z 3010/0112 00000KT 6SM HZ SKC TX26/3021Z TN10/3012Z FM301000 00000KT 3SM BR BKN010 TEMPO 3011/3015 1/2SM FG VV001 FM301600 00000KT 3SM HZ SCT010 FM301800 26010KT P6SM SKC FM010300 24005KT 6SM HZ SCT010
KCRQ 
42nm W 
301738Z 3018/0118 26007KT 3SM BR VCFG FEW001 TEMPO 3018/3019 BKN001 FM010200 VRB04KT P6SM VCFG SCT002 TEMPO 0104/0108 1SM BR BKN001 FM010800 VRB03KT 1/4SM FG BKN001 FM011600 VRB04KT 2SM BR VCFG SCT002
KSAN 
43nm SW 
300902Z 3009/0112 00000KT 1/4SM FG VV002 TEMPO 3009/3012 1/2SM FG VV001 FM301200 00000KT 1/2SM FG VV002 FM301600 18003KT 3SM BR SCT003 FM301700 31007KT P6SM SKC FM010300 24003KT P6SM SCT003 FM010600 00000KT 3SM BR BKN003
KPSP 
44nm N 
300538Z 3006/0106 31004KT P6SM SKC FM301900 10007KT P6SM SKC FM010200 32006KT P6SM SKC
NOTAMs
Click for the latest NOTAMs
NOTAMs are issued by the DoD/FAA and will open in a separate window not controlled by AirNav.

 

 
 

Would you like to see your business listed on this page?

 If your business provides an interesting product or service to pilots, flight crews, aircraft, or users of the Desert Wings Sky Ranch Airport, you should consider listing it here.  To start the listing process, click on the button below
 
Add a business
 

Other Pages about Desert Wings Sky Ranch Airport

Update a link
 
Copyright © AirNav, LLC. All rights reserved. Privacy Policy  Contact